sensor_id;sensor_type;location;lat;lon;timestamp;temperature;humidity
48836;DHT22;62581;47.342;7.908;2023-03-04T00:01:54;6.10;99.90
48836;DHT22;62581;47.342;7.908;2023-03-04T00:04:21;6.10;99.90
48836;DHT22;62581;47.342;7.908;2023-03-04T00:06:47;6.10;99.90
48836;DHT22;62581;47.342;7.908;2023-03-04T00:09:14;6.20;99.90
48836;DHT22;62581;47.342;7.908;2023-03-04T00:11:41;6.20;99.90
48836;DHT22;62581;47.342;7.908;2023-03-04T00:14:08;6.20;99.90
48836;DHT22;62581;47.342;7.908;2023-03-04T00:16:36;6.20;99.90
48836;DHT22;62581;47.342;7.908;2023-03-04T00:19:03;6.20;99.90
48836;DHT22;62581;47.342;7.908;2023-03-04T00:21:29;6.20;99.90
48836;DHT22;62581;47.342;7.908;2023-03-04T00:23:56;6.20;99.90
48836;DHT22;62581;47.342;7.908;2023-03-04T00:26:23;6.20;99.90
48836;DHT22;62581;47.342;7.908;2023-03-04T00:28:50;6.20;99.90
48836;DHT22;62581;47.342;7.908;2023-03-04T00:31:16;6.20;99.90
48836;DHT22;62581;47.342;7.908;2023-03-04T00:33:45;6.20;99.90
48836;DHT22;62581;47.342;7.908;2023-03-04T00:36:11;6.20;99.90
48836;DHT22;62581;47.342;7.908;2023-03-04T00:38:39;6.20;99.90
48836;DHT22;62581;47.342;7.908;2023-03-04T00:41:06;6.20;99.90
48836;DHT22;62581;47.342;7.908;2023-03-04T00:43:32;6.20;99.90
48836;DHT22;62581;47.342;7.908;2023-03-04T00:45:59;6.20;99.90
48836;DHT22;62581;47.342;7.908;2023-03-04T00:48:26;6.20;99.90
48836;DHT22;62581;47.342;7.908;2023-03-04T00:50:54;6.10;99.90
48836;DHT22;62581;47.342;7.908;2023-03-04T00:53:21;6.20;99.90
48836;DHT22;62581;47.342;7.908;2023-03-04T00:55:48;6.10;99.90
48836;DHT22;62581;47.342;7.908;2023-03-04T00:58:15;6.20;99.90
48836;DHT22;62581;47.342;7.908;2023-03-04T01:00:42;6.20;99.90
48836;DHT22;62581;47.342;7.908;2023-03-04T01:03:08;6.20;99.90
48836;DHT22;62581;47.342;7.908;2023-03-04T01:05:35;6.20;99.90
48836;DHT22;62581;47.342;7.908;2023-03-04T01:08:03;6.10;99.90
48836;DHT22;62581;47.342;7.908;2023-03-04T01:10:31;6.10;99.90
48836;DHT22;62581;47.342;7.908;2023-03-04T01:12:57;6.10;99.90
48836;DHT22;62581;47.342;7.908;2023-03-04T01:15:24;6.10;99.90
48836;DHT22;62581;47.342;7.908;2023-03-04T01:17:51;6.20;99.90
48836;DHT22;62581;47.342;7.908;2023-03-04T01:20:18;6.20;99.90
48836;DHT22;62581;47.342;7.908;2023-03-04T01:22:45;6.20;99.90
48836;DHT22;62581;47.342;7.908;2023-03-04T01:25:13;6.20;99.90
48836;DHT22;62581;47.342;7.908;2023-03-04T01:27:40;6.20;99.90
48836;DHT22;62581;47.342;7.908;2023-03-04T01:30:07;6.20;99.90
48836;DHT22;62581;47.342;7.908;2023-03-04T01:32:34;6.20;99.90
48836;DHT22;62581;47.342;7.908;2023-03-04T01:35:00;6.20;99.90
48836;DHT22;62581;47.342;7.908;2023-03-04T01:37:27;6.20;99.90
48836;DHT22;62581;47.342;7.908;2023-03-04T01:39:54;6.20;99.90
48836;DHT22;62581;47.342;7.908;2023-03-04T01:42:22;6.20;99.90
48836;DHT22;62581;47.342;7.908;2023-03-04T01:44:49;6.20;99.90
48836;DHT22;62581;47.342;7.908;2023-03-04T01:47:17;6.20;99.90
48836;DHT22;62581;47.342;7.908;2023-03-04T01:49:44;6.20;99.90
48836;DHT22;62581;47.342;7.908;2023-03-04T01:52:12;6.10;99.90
48836;DHT22;62581;47.342;7.908;2023-03-04T01:54:39;6.20;99.90
48836;DHT22;62581;47.342;7.908;2023-03-04T01:57:07;6.20;99.90
48836;DHT22;62581;47.342;7.908;2023-03-04T01:59:42;6.00;99.90
48836;DHT22;62581;47.342;7.908;2023-03-04T02:02:08;6.10;99.90
48836;DHT22;62581;47.342;7.908;2023-03-04T02:04:35;6.10;99.90
48836;DHT22;62581;47.342;7.908;2023-03-04T02:07:02;6.10;99.90
48836;DHT22;62581;47.342;7.908;2023-03-04T02:09:29;6.10;99.90
48836;DHT22;62581;47.342;7.908;2023-03-04T02:11:56;6.10;99.90
48836;DHT22;62581;47.342;7.908;2023-03-04T02:14:23;6.10;99.90
48836;DHT22;62581;47.342;7.908;2023-03-04T02:16:52;6.10;99.90
48836;DHT22;62581;47.342;7.908;2023-03-04T02:19:21;6.10;99.90
48836;DHT22;62581;47.342;7.908;2023-03-04T02:21:49;6.10;99.90
48836;DHT22;62581;47.342;7.908;2023-03-04T02:24:16;6.10;99.90
48836;DHT22;62581;47.342;7.908;2023-03-04T02:26:46;6.10;99.90
48836;DHT22;62581;47.342;7.908;2023-03-04T02:29:13;6.00;99.90
48836;DHT22;62581;47.342;7.908;2023-03-04T02:31:41;6.10;99.90
48836;DHT22;62581;47.342;7.908;2023-03-04T02:34:10;6.10;99.90
48836;DHT22;62581;47.342;7.908;2023-03-04T02:36:38;6.10;99.90
48836;DHT22;62581;47.342;7.908;2023-03-04T02:39:06;6.00;99.90
48836;DHT22;62581;47.342;7.908;2023-03-04T02:41:33;6.00;99.90
48836;DHT22;62581;47.342;7.908;2023-03-04T02:44:02;6.00;99.90
48836;DHT22;62581;47.342;7.908;2023-03-04T02:46:28;6.00;99.90
48836;DHT22;62581;47.342;7.908;2023-03-04T02:48:55;6.00;99.90
48836;DHT22;62581;47.342;7.908;2023-03-04T02:51:22;6.00;99.90
48836;DHT22;62581;47.342;7.908;2023-03-04T02:53:49;6.00;99.90
48836;DHT22;62581;47.342;7.908;2023-03-04T02:56:15;6.00;99.90
48836;DHT22;62581;47.342;7.908;2023-03-04T02:58:42;6.00;99.90
48836;DHT22;62581;47.342;7.908;2023-03-04T03:01:10;5.90;99.90
48836;DHT22;62581;47.342;7.908;2023-03-04T03:03:37;5.90;99.90
48836;DHT22;62581;47.342;7.908;2023-03-04T03:06:04;5.90;99.90
48836;DHT22;62581;47.342;7.908;2023-03-04T03:08:30;5.90;99.90
48836;DHT22;62581;47.342;7.908;2023-03-04T03:10:57;5.90;99.90
48836;DHT22;62581;47.342;7.908;2023-03-04T03:13:24;5.80;99.90
48836;DHT22;62581;47.342;7.908;2023-03-04T03:15:51;5.80;99.90
48836;DHT22;62581;47.342;7.908;2023-03-04T03:18:19;5.80;99.90
48836;DHT22;62581;47.342;7.908;2023-03-04T03:20:46;5.80;99.90
48836;DHT22;62581;47.342;7.908;2023-03-04T03:23:12;5.80;99.90
48836;DHT22;62581;47.342;7.908;2023-03-04T03:25:39;5.80;99.90
48836;DHT22;62581;47.342;7.908;2023-03-04T03:28:06;5.80;99.90
48836;DHT22;62581;47.342;7.908;2023-03-04T03:30:33;5.70;99.90
48836;DHT22;62581;47.342;7.908;2023-03-04T03:32:59;5.70;99.90
48836;DHT22;62581;47.342;7.908;2023-03-04T03:35:27;5.70;99.90
48836;DHT22;62581;47.342;7.908;2023-03-04T03:37:54;5.70;99.90
48836;DHT22;62581;47.342;7.908;2023-03-04T03:40:21;5.60;99.90
48836;DHT22;62581;47.342;7.908;2023-03-04T03:42:48;5.60;99.90
48836;DHT22;62581;47.342;7.908;2023-03-04T03:45:14;5.50;99.90
48836;DHT22;62581;47.342;7.908;2023-03-04T03:47:41;5.50;99.90
48836;DHT22;62581;47.342;7.908;2023-03-04T03:50:08;5.50;99.90
48836;DHT22;62581;47.342;7.908;2023-03-04T03:52:36;5.40;99.90
48836;DHT22;62581;47.342;7.908;2023-03-04T03:55:03;5.40;99.90
48836;DHT22;62581;47.342;7.908;2023-03-04T03:57:30;5.30;99.90
48836;DHT22;62581;47.342;7.908;2023-03-04T03:59:57;5.20;99.90
48836;DHT22;62581;47.342;7.908;2023-03-04T04:02:24;5.20;99.90
48836;DHT22;62581;47.342;7.908;2023-03-04T04:04:51;5.20;99.90
48836;DHT22;62581;47.342;7.908;2023-03-04T04:07:17;5.10;99.90
48836;DHT22;62581;47.342;7.908;2023-03-04T04:09:45;5.10;99.90
48836;DHT22;62581;47.342;7.908;2023-03-04T04:12:12;5.10;99.90
48836;DHT22;62581;47.342;7.908;2023-03-04T04:14:40;5.10;99.90
48836;DHT22;62581;47.342;7.908;2023-03-04T04:17:06;5.00;99.90
48836;DHT22;62581;47.342;7.908;2023-03-04T04:19:33;5.00;99.90
48836;DHT22;62581;47.342;7.908;2023-03-04T04:22:00;4.90;99.90
48836;DHT22;62581;47.342;7.908;2023-03-04T04:24:27;4.90;99.90
48836;DHT22;62581;47.342;7.908;2023-03-04T04:26:55;4.80;99.90
48836;DHT22;62581;47.342;7.908;2023-03-04T04:29:22;4.80;99.90
48836;DHT22;62581;47.342;7.908;2023-03-04T04:31:49;4.70;99.90
48836;DHT22;62581;47.342;7.908;2023-03-04T04:34:16;4.60;99.90
48836;DHT22;62581;47.342;7.908;2023-03-04T04:36:43;4.60;99.90
48836;DHT22;62581;47.342;7.908;2023-03-04T04:39:09;4.50;99.90
48836;DHT22;62581;47.342;7.908;2023-03-04T04:41:37;4.40;99.90
48836;DHT22;62581;47.342;7.908;2023-03-04T04:44:06;4.30;99.90
48836;DHT22;62581;47.342;7.908;2023-03-04T04:46:33;4.30;99.90
48836;DHT22;62581;47.342;7.908;2023-03-04T04:49:00;4.20;99.90
48836;DHT22;62581;47.342;7.908;2023-03-04T04:51:26;4.20;99.90
48836;DHT22;62581;47.342;7.908;2023-03-04T04:53:53;4.20;99.90
48836;DHT22;62581;47.342;7.908;2023-03-04T04:56:21;4.10;99.90
48836;DHT22;62581;47.342;7.908;2023-03-04T04:58:49;4.10;99.90
48836;DHT22;62581;47.342;7.908;2023-03-04T05:01:17;4.10;99.90
48836;DHT22;62581;47.342;7.908;2023-03-04T05:03:44;4.10;99.90
48836;DHT22;62581;47.342;7.908;2023-03-04T05:06:13;4.00;99.90
48836;DHT22;62581;47.342;7.908;2023-03-04T05:08:39;4.00;99.90
48836;DHT22;62581;47.342;7.908;2023-03-04T05:11:06;4.00;99.90
48836;DHT22;62581;47.342;7.908;2023-03-04T05:13:33;3.90;99.90
48836;DHT22;62581;47.342;7.908;2023-03-04T05:16:00;3.90;99.90
48836;DHT22;62581;47.342;7.908;2023-03-04T05:18:29;3.80;99.90
48836;DHT22;62581;47.342;7.908;2023-03-04T05:20:56;3.80;99.90
48836;DHT22;62581;47.342;7.908;2023-03-04T05:23:23;3.80;99.90
48836;DHT22;62581;47.342;7.908;2023-03-04T05:25:50;3.70;99.90
48836;DHT22;62581;47.342;7.908;2023-03-04T05:28:17;3.70;99.90
48836;DHT22;62581;47.342;7.908;2023-03-04T05:30:44;3.60;99.90
48836;DHT22;62581;47.342;7.908;2023-03-04T05:33:12;3.60;99.90
48836;DHT22;62581;47.342;7.908;2023-03-04T05:35:40;3.50;99.90
48836;DHT22;62581;47.342;7.908;2023-03-04T05:38:08;3.50;99.90
48836;DHT22;62581;47.342;7.908;2023-03-04T05:40:35;3.50;99.90
48836;DHT22;62581;47.342;7.908;2023-03-04T05:43:02;3.50;99.90
48836;DHT22;62581;47.342;7.908;2023-03-04T05:45:29;3.40;99.90
48836;DHT22;62581;47.342;7.908;2023-03-04T05:47:55;3.40;99.90
48836;DHT22;62581;47.342;7.908;2023-03-04T05:50:22;3.30;99.90
48836;DHT22;62581;47.342;7.908;2023-03-04T05:52:50;3.40;99.90
48836;DHT22;62581;47.342;7.908;2023-03-04T05:55:17;3.40;99.90
48836;DHT22;62581;47.342;7.908;2023-03-04T05:57:44;3.30;99.90
48836;DHT22;62581;47.342;7.908;2023-03-04T06:00:12;3.20;99.90
48836;DHT22;62581;47.342;7.908;2023-03-04T06:02:39;3.30;99.90
48836;DHT22;62581;47.342;7.908;2023-03-04T06:05:07;3.20;99.90
48836;DHT22;62581;47.342;7.908;2023-03-04T06:07:34;3.20;99.90
48836;DHT22;62581;47.342;7.908;2023-03-04T06:10:02;3.20;99.90
48836;DHT22;62581;47.342;7.908;2023-03-04T06:12:29;3.20;99.90
48836;DHT22;62581;47.342;7.908;2023-03-04T06:14:55;3.20;99.90
48836;DHT22;62581;47.342;7.908;2023-03-04T06:17:22;3.20;99.90
48836;DHT22;62581;47.342;7.908;2023-03-04T06:19:49;3.20;99.90
48836;DHT22;62581;47.342;7.908;2023-03-04T06:22:15;3.20;99.90
48836;DHT22;62581;47.342;7.908;2023-03-04T06:24:42;3.20;99.90
48836;DHT22;62581;47.342;7.908;2023-03-04T06:27:10;3.20;99.90
48836;DHT22;62581;47.342;7.908;2023-03-04T06:29:37;3.20;99.90
48836;DHT22;62581;47.342;7.908;2023-03-04T06:32:04;3.30;99.90
48836;DHT22;62581;47.342;7.908;2023-03-04T06:34:31;3.30;99.90
48836;DHT22;62581;47.342;7.908;2023-03-04T06:36:58;3.30;99.90
48836;DHT22;62581;47.342;7.908;2023-03-04T06:39:24;3.40;99.90
48836;DHT22;62581;47.342;7.908;2023-03-04T06:41:51;3.50;99.90
48836;DHT22;62581;47.342;7.908;2023-03-04T06:44:19;3.50;99.90
48836;DHT22;62581;47.342;7.908;2023-03-04T06:46:46;3.60;99.90
48836;DHT22;62581;47.342;7.908;2023-03-04T06:49:13;3.60;99.90
48836;DHT22;62581;47.342;7.908;2023-03-04T06:51:40;3.70;99.90
48836;DHT22;62581;47.342;7.908;2023-03-04T06:54:06;3.70;99.90
48836;DHT22;62581;47.342;7.908;2023-03-04T06:56:33;3.70;99.90
48836;DHT22;62581;47.342;7.908;2023-03-04T06:59:00;3.70;99.90
48836;DHT22;62581;47.342;7.908;2023-03-04T07:01:28;3.80;99.90
48836;DHT22;62581;47.342;7.908;2023-03-04T07:03:55;3.80;99.90
48836;DHT22;62581;47.342;7.908;2023-03-04T07:06:23;3.80;99.90
48836;DHT22;62581;47.342;7.908;2023-03-04T07:08:50;3.80;99.90
48836;DHT22;62581;47.342;7.908;2023-03-04T07:11:17;3.80;99.90
48836;DHT22;62581;47.342;7.908;2023-03-04T07:13:44;3.80;99.90
48836;DHT22;62581;47.342;7.908;2023-03-04T07:16:12;3.80;99.90
48836;DHT22;62581;47.342;7.908;2023-03-04T07:18:40;3.80;99.90
48836;DHT22;62581;47.342;7.908;2023-03-04T07:21:07;3.80;99.90
48836;DHT22;62581;47.342;7.908;2023-03-04T07:23:34;3.80;99.90
48836;DHT22;62581;47.342;7.908;2023-03-04T07:26:01;3.90;99.90
48836;DHT22;62581;47.342;7.908;2023-03-04T07:28:27;3.90;99.90
48836;DHT22;62581;47.342;7.908;2023-03-04T07:30:54;3.90;99.90
48836;DHT22;62581;47.342;7.908;2023-03-04T07:33:21;3.90;99.90
48836;DHT22;62581;47.342;7.908;2023-03-04T07:35:49;4.00;99.90
48836;DHT22;62581;47.342;7.908;2023-03-04T07:38:23;4.00;99.90
48836;DHT22;62581;47.342;7.908;2023-03-04T07:40:53;4.10;99.90
48836;DHT22;62581;47.342;7.908;2023-03-04T07:43:20;4.10;99.90
48836;DHT22;62581;47.342;7.908;2023-03-04T07:45:47;4.20;99.90
48836;DHT22;62581;47.342;7.908;2023-03-04T07:48:13;4.20;99.90
48836;DHT22;62581;47.342;7.908;2023-03-04T07:50:40;4.30;99.90
48836;DHT22;62581;47.342;7.908;2023-03-04T07:53:08;4.40;99.90
48836;DHT22;62581;47.342;7.908;2023-03-04T07:55:35;4.50;99.90
48836;DHT22;62581;47.342;7.908;2023-03-04T07:58:02;4.50;99.90
48836;DHT22;62581;47.342;7.908;2023-03-04T08:00:28;4.60;99.90
48836;DHT22;62581;47.342;7.908;2023-03-04T08:02:55;4.70;99.90
48836;DHT22;62581;47.342;7.908;2023-03-04T08:05:22;4.70;99.90
48836;DHT22;62581;47.342;7.908;2023-03-04T08:07:49;4.70;99.90
48836;DHT22;62581;47.342;7.908;2023-03-04T08:10:17;4.80;99.90
48836;DHT22;62581;47.342;7.908;2023-03-04T08:12:44;4.80;99.90
48836;DHT22;62581;47.342;7.908;2023-03-04T08:15:11;4.90;99.90
48836;DHT22;62581;47.342;7.908;2023-03-04T08:17:37;5.00;99.90
48836;DHT22;62581;47.342;7.908;2023-03-04T08:20:04;5.00;99.90
48836;DHT22;62581;47.342;7.908;2023-03-04T08:22:31;5.10;99.90
48836;DHT22;62581;47.342;7.908;2023-03-04T08:24:58;5.20;99.90
48836;DHT22;62581;47.342;7.908;2023-03-04T08:27:26;5.30;99.90
48836;DHT22;62581;47.342;7.908;2023-03-04T08:29:53;5.40;99.90
48836;DHT22;62581;47.342;7.908;2023-03-04T08:32:20;5.50;99.90
48836;DHT22;62581;47.342;7.908;2023-03-04T08:34:47;5.60;99.90
48836;DHT22;62581;47.342;7.908;2023-03-04T08:37:13;5.70;99.90
48836;DHT22;62581;47.342;7.908;2023-03-04T08:39:40;5.80;99.90
48836;DHT22;62581;47.342;7.908;2023-03-04T08:42:07;5.80;99.90
48836;DHT22;62581;47.342;7.908;2023-03-04T08:44:35;5.90;99.90
48836;DHT22;62581;47.342;7.908;2023-03-04T08:47:02;5.90;99.90
48836;DHT22;62581;47.342;7.908;2023-03-04T08:49:28;6.00;99.90
48836;DHT22;62581;47.342;7.908;2023-03-04T08:51:55;6.10;99.90
48836;DHT22;62581;47.342;7.908;2023-03-04T08:54:22;6.20;99.90
48836;DHT22;62581;47.342;7.908;2023-03-04T08:56:49;6.20;99.90
48836;DHT22;62581;47.342;7.908;2023-03-04T08:59:15;6.30;99.90
48836;DHT22;62581;47.342;7.908;2023-03-04T09:01:43;6.40;99.90
48836;DHT22;62581;47.342;7.908;2023-03-04T09:04:10;6.50;99.90
48836;DHT22;62581;47.342;7.908;2023-03-04T09:06:37;6.50;99.90
48836;DHT22;62581;47.342;7.908;2023-03-04T09:09:04;6.60;99.90
48836;DHT22;62581;47.342;7.908;2023-03-04T09:11:31;6.70;99.90
48836;DHT22;62581;47.342;7.908;2023-03-04T09:13:57;6.70;99.90
48836;DHT22;62581;47.342;7.908;2023-03-04T09:16:24;6.90;99.90
48836;DHT22;62581;47.342;7.908;2023-03-04T09:18:52;7.00;99.90
48836;DHT22;62581;47.342;7.908;2023-03-04T09:21:19;7.10;99.90
48836;DHT22;62581;47.342;7.908;2023-03-04T09:23:46;7.20;99.90
48836;DHT22;62581;47.342;7.908;2023-03-04T09:26:13;7.20;99.90
48836;DHT22;62581;47.342;7.908;2023-03-04T09:28:40;7.40;99.90
48836;DHT22;62581;47.342;7.908;2023-03-04T09:31:11;7.50;99.90
48836;DHT22;62581;47.342;7.908;2023-03-04T09:33:39;7.60;99.90
48836;DHT22;62581;47.342;7.908;2023-03-04T09:36:09;7.70;99.90
48836;DHT22;62581;47.342;7.908;2023-03-04T09:38:36;7.80;99.90
48836;DHT22;62581;47.342;7.908;2023-03-04T09:41:05;7.80;99.90
48836;DHT22;62581;47.342;7.908;2023-03-04T09:43:32;7.90;99.90
48836;DHT22;62581;47.342;7.908;2023-03-04T09:46:00;8.00;99.90
48836;DHT22;62581;47.342;7.908;2023-03-04T09:48:29;8.00;99.90
48836;DHT22;62581;47.342;7.908;2023-03-04T09:51:05;8.10;99.90
48836;DHT22;62581;47.342;7.908;2023-03-04T09:53:41;8.20;99.90
48836;DHT22;62581;47.342;7.908;2023-03-04T09:56:10;8.20;99.90
48836;DHT22;62581;47.342;7.908;2023-03-04T09:58:41;8.30;99.90
48836;DHT22;62581;47.342;7.908;2023-03-04T10:01:10;8.40;99.90
48836;DHT22;62581;47.342;7.908;2023-03-04T10:03:40;8.40;99.90
48836;DHT22;62581;47.342;7.908;2023-03-04T10:06:08;8.40;99.90
48836;DHT22;62581;47.342;7.908;2023-03-04T10:08:37;8.50;99.90
48836;DHT22;62581;47.342;7.908;2023-03-04T10:11:10;8.50;99.90
48836;DHT22;62581;47.342;7.908;2023-03-04T10:13:39;8.70;99.90
48836;DHT22;62581;47.342;7.908;2023-03-04T10:16:09;8.80;99.90
48836;DHT22;62581;47.342;7.908;2023-03-04T10:18:37;8.80;99.90
48836;DHT22;62581;47.342;7.908;2023-03-04T10:21:18;8.90;99.90
48836;DHT22;62581;47.342;7.908;2023-03-04T10:23:46;8.90;99.90
48836;DHT22;62581;47.342;7.908;2023-03-04T10:26:17;9.00;99.90
48836;DHT22;62581;47.342;7.908;2023-03-04T10:28:45;9.00;99.90
48836;DHT22;62581;47.342;7.908;2023-03-04T10:31:14;9.20;99.90
48836;DHT22;62581;47.342;7.908;2023-03-04T10:33:42;9.20;99.90
48836;DHT22;62581;47.342;7.908;2023-03-04T10:36:15;9.30;99.90
48836;DHT22;62581;47.342;7.908;2023-03-04T10:38:47;9.40;99.90
48836;DHT22;62581;47.342;7.908;2023-03-04T10:41:16;9.50;99.90
48836;DHT22;62581;47.342;7.908;2023-03-04T10:43:43;9.60;99.90
48836;DHT22;62581;47.342;7.908;2023-03-04T10:46:15;9.70;99.90
48836;DHT22;62581;47.342;7.908;2023-03-04T10:48:42;9.80;99.90
48836;DHT22;62581;47.342;7.908;2023-03-04T10:51:10;9.90;99.90
48836;DHT22;62581;47.342;7.908;2023-03-04T10:53:38;10.00;99.90
48836;DHT22;62581;47.342;7.908;2023-03-04T10:58:48;10.20;99.90
48836;DHT22;62581;47.342;7.908;2023-03-04T11:01:15;10.40;99.90
48836;DHT22;62581;47.342;7.908;2023-03-04T11:03:49;10.40;99.90
48836;DHT22;62581;47.342;7.908;2023-03-04T11:06:18;10.60;99.90
48836;DHT22;62581;47.342;7.908;2023-03-04T11:08:51;10.70;99.90
48836;DHT22;62581;47.342;7.908;2023-03-04T11:11:27;10.80;99.90
48836;DHT22;62581;47.342;7.908;2023-03-04T11:14:00;10.80;99.90
48836;DHT22;62581;47.342;7.908;2023-03-04T11:16:29;10.80;99.90
48836;DHT22;62581;47.342;7.908;2023-03-04T11:18:57;10.60;99.90
48836;DHT22;62581;47.342;7.908;2023-03-04T11:21:25;10.40;99.90
48836;DHT22;62581;47.342;7.908;2023-03-04T11:23:55;10.20;99.90
48836;DHT22;62581;47.342;7.908;2023-03-04T11:26:25;10.20;99.90
48836;DHT22;62581;47.342;7.908;2023-03-04T11:28:55;9.80;99.90
48836;DHT22;62581;47.342;7.908;2023-03-04T11:31:27;9.50;99.90
48836;DHT22;62581;47.342;7.908;2023-03-04T11:33:55;9.30;99.90
48836;DHT22;62581;47.342;7.908;2023-03-04T11:36:28;9.50;99.90
48836;DHT22;62581;47.342;7.908;2023-03-04T11:38:58;9.70;99.90
48836;DHT22;62581;47.342;7.908;2023-03-04T11:41:28;9.50;99.90
48836;DHT22;62581;47.342;7.908;2023-03-04T11:43:56;9.40;99.90
48836;DHT22;62581;47.342;7.908;2023-03-04T11:46:35;9.30;99.90
48836;DHT22;62581;47.342;7.908;2023-03-04T11:49:06;9.50;99.90
48836;DHT22;62581;47.342;7.908;2023-03-04T11:51:39;9.90;99.90
48836;DHT22;62581;47.342;7.908;2023-03-04T11:54:15;9.70;99.90
48836;DHT22;62581;47.342;7.908;2023-03-04T11:56:43;9.70;99.90
48836;DHT22;62581;47.342;7.908;2023-03-04T11:59:22;10.20;99.90
48836;DHT22;62581;47.342;7.908;2023-03-04T12:01:57;11.00;99.90
48836;DHT22;62581;47.342;7.908;2023-03-04T12:04:39;11.70;99.90
48836;DHT22;62581;47.342;7.908;2023-03-04T12:07:14;12.60;99.90
48836;DHT22;62581;47.342;7.908;2023-03-04T12:09:46;13.60;99.90
48836;DHT22;62581;47.342;7.908;2023-03-04T12:12:26;14.10;99.90
48836;DHT22;62581;47.342;7.908;2023-03-04T12:14:56;14.80;99.90
48836;DHT22;62581;47.342;7.908;2023-03-04T12:17:35;15.60;99.90
48836;DHT22;62581;47.342;7.908;2023-03-04T12:20:15;15.80;99.90
48836;DHT22;62581;47.342;7.908;2023-03-04T12:22:47;15.70;99.90
48836;DHT22;62581;47.342;7.908;2023-03-04T12:25:33;15.80;99.80
48836;DHT22;62581;47.342;7.908;2023-03-04T12:28:03;16.20;98.80
48836;DHT22;62581;47.342;7.908;2023-03-04T12:30:39;16.20;98.10
48836;DHT22;62581;47.342;7.908;2023-03-04T12:33:15;15.70;99.00
48836;DHT22;62581;47.342;7.908;2023-03-04T12:35:46;15.90;98.10
48836;DHT22;62581;47.342;7.908;2023-03-04T12:38:24;16.70;97.50
48836;DHT22;62581;47.342;7.908;2023-03-04T12:40:56;17.20;96.10
48836;DHT22;62581;47.342;7.908;2023-03-04T12:46:17;17.20;95.60
48836;DHT22;62581;47.342;7.908;2023-03-04T12:48:48;17.60;94.90
48836;DHT22;62581;47.342;7.908;2023-03-04T12:51:24;18.70;93.00
48836;DHT22;62581;47.342;7.908;2023-03-04T12:53:59;19.50;91.40
48836;DHT22;62581;47.342;7.908;2023-03-04T12:56:30;19.30;90.30
48836;DHT22;62581;47.342;7.908;2023-03-04T12:58:58;18.20;91.10
48836;DHT22;62581;47.342;7.908;2023-03-04T13:01:26;16.80;92.60
48836;DHT22;62581;47.342;7.908;2023-03-04T13:03:58;17.30;92.60
48836;DHT22;62581;47.342;7.908;2023-03-04T13:06:33;17.70;92.20
48836;DHT22;62581;47.342;7.908;2023-03-04T13:09:01;18.10;90.90
48836;DHT22;62581;47.342;7.908;2023-03-04T13:14:24;18.90;88.90
48836;DHT22;62581;47.342;7.908;2023-03-04T13:16:52;17.90;88.90
48836;DHT22;62581;47.342;7.908;2023-03-04T13:24:48;17.70;90.00
48836;DHT22;62581;47.342;7.908;2023-03-04T13:30:01;17.90;87.60
48836;DHT22;62581;47.342;7.908;2023-03-04T13:32:37;17.00;89.70
48836;DHT22;62581;47.342;7.908;2023-03-04T13:37:55;15.70;92.10
48836;DHT22;62581;47.342;7.908;2023-03-04T13:40:33;16.80;91.10
48836;DHT22;62581;47.342;7.908;2023-03-04T13:45:41;18.30;86.80
48836;DHT22;62581;47.342;7.908;2023-03-04T13:48:20;18.20;86.70
48836;DHT22;62581;47.342;7.908;2023-03-04T13:50:49;18.20;86.40
48836;DHT22;62581;47.342;7.908;2023-03-04T13:53:18;18.20;85.70
48836;DHT22;62581;47.342;7.908;2023-03-04T13:56:03;18.10;83.50
48836;DHT22;62581;47.342;7.908;2023-03-04T13:58:30;18.30;83.80
48836;DHT22;62581;47.342;7.908;2023-03-04T14:00:57;18.60;83.10
48836;DHT22;62581;47.342;7.908;2023-03-04T14:03:24;18.40;82.90
48836;DHT22;62581;47.342;7.908;2023-03-04T14:06:11;18.20;82.60
48836;DHT22;62581;47.342;7.908;2023-03-04T14:08:40;17.50;84.10
48836;DHT22;62581;47.342;7.908;2023-03-04T14:11:12;18.00;83.90
48836;DHT22;62581;47.342;7.908;2023-03-04T14:13:39;19.00;81.70
48836;DHT22;62581;47.342;7.908;2023-03-04T14:16:06;19.20;80.10
48836;DHT22;62581;47.342;7.908;2023-03-04T14:18:33;19.40;79.60
48836;DHT22;62581;47.342;7.908;2023-03-04T14:21:01;19.90;78.30
48836;DHT22;62581;47.342;7.908;2023-03-04T14:23:28;20.20;77.70
48836;DHT22;62581;47.342;7.908;2023-03-04T14:26:02;19.70;77.10
48836;DHT22;62581;47.342;7.908;2023-03-04T14:28:31;19.20;77.20
48836;DHT22;62581;47.342;7.908;2023-03-04T14:30:58;18.50;79.60
48836;DHT22;62581;47.342;7.908;2023-03-04T14:33:25;18.20;79.70
48836;DHT22;62581;47.342;7.908;2023-03-04T14:35:53;18.40;78.60
48836;DHT22;62581;47.342;7.908;2023-03-04T14:38:22;18.20;78.70
48836;DHT22;62581;47.342;7.908;2023-03-04T14:40:50;18.40;78.70
48836;DHT22;62581;47.342;7.908;2023-03-04T14:43:18;19.50;76.90
48836;DHT22;62581;47.342;7.908;2023-03-04T14:45:48;20.20;75.00
48836;DHT22;62581;47.342;7.908;2023-03-04T14:48:16;20.50;73.50
48836;DHT22;62581;47.342;7.908;2023-03-04T14:50:47;19.80;73.00
48836;DHT22;62581;47.342;7.908;2023-03-04T14:53:16;20.60;79.30
48836;DHT22;62581;47.342;7.908;2023-03-04T14:55:53;21.20;72.60
48836;DHT22;62581;47.342;7.908;2023-03-04T14:58:21;19.40;74.40
48836;DHT22;62581;47.342;7.908;2023-03-04T15:01:01;18.30;75.60
48836;DHT22;62581;47.342;7.908;2023-03-04T15:03:28;18.10;77.30
48836;DHT22;62581;47.342;7.908;2023-03-04T15:06:04;18.60;77.80
48836;DHT22;62581;47.342;7.908;2023-03-04T15:08:32;19.30;75.00
48836;DHT22;62581;47.342;7.908;2023-03-04T15:11:00;17.90;75.70
48836;DHT22;62581;47.342;7.908;2023-03-04T15:13:38;18.50;78.10
48836;DHT22;62581;47.342;7.908;2023-03-04T15:16:07;18.50;74.20
48836;DHT22;62581;47.342;7.908;2023-03-04T15:18:34;18.70;74.20
48836;DHT22;62581;47.342;7.908;2023-03-04T15:21:01;19.60;73.10
48836;DHT22;62581;47.342;7.908;2023-03-04T15:23:29;19.10;71.80
48836;DHT22;62581;47.342;7.908;2023-03-04T15:25:56;18.20;74.00
48836;DHT22;62581;47.342;7.908;2023-03-04T15:28:24;18.30;75.30
48836;DHT22;62581;47.342;7.908;2023-03-04T15:30:51;18.00;74.50
48836;DHT22;62581;47.342;7.908;2023-03-04T15:33:20;17.60;75.20
48836;DHT22;62581;47.342;7.908;2023-03-04T15:35:49;17.80;74.60
48836;DHT22;62581;47.342;7.908;2023-03-04T15:38:17;17.30;73.90
48836;DHT22;62581;47.342;7.908;2023-03-04T15:40:45;17.00;76.90
48836;DHT22;62581;47.342;7.908;2023-03-04T15:43:12;17.20;74.80
48836;DHT22;62581;47.342;7.908;2023-03-04T15:45:39;16.90;74.30
48836;DHT22;62581;47.342;7.908;2023-03-04T15:48:09;17.60;74.80
48836;DHT22;62581;47.342;7.908;2023-03-04T15:50:39;18.20;71.30
48836;DHT22;62581;47.342;7.908;2023-03-04T15:53:07;17.70;72.00
48836;DHT22;62581;47.342;7.908;2023-03-04T15:55:34;17.10;70.90
48836;DHT22;62581;47.342;7.908;2023-03-04T15:58:01;17.10;72.20
48836;DHT22;62581;47.342;7.908;2023-03-04T16:00:28;17.60;71.90
48836;DHT22;62581;47.342;7.908;2023-03-04T16:02:56;17.30;72.20
48836;DHT22;62581;47.342;7.908;2023-03-04T16:05:23;17.30;71.00
48836;DHT22;62581;47.342;7.908;2023-03-04T16:07:51;18.00;71.20
48836;DHT22;62581;47.342;7.908;2023-03-04T16:10:20;18.50;69.40
48836;DHT22;62581;47.342;7.908;2023-03-04T16:12:47;18.60;69.10